createdAt,value
2019-03-31T00:02:49.232Z,2.42
2019-03-31T00:07:52.687Z,2.42
2019-03-31T00:12:56.214Z,2.25
2019-03-31T00:17:59.669Z,3.20
2019-03-31T00:23:03.132Z,3.05
2019-03-31T00:28:06.587Z,2.42
2019-03-31T00:33:10.125Z,3.08
2019-03-31T00:38:13.827Z,2.65
2019-03-31T00:43:17.453Z,2.08
2019-03-31T00:48:20.925Z,3.37
2019-03-31T00:53:24.373Z,2.42
2019-03-31T00:58:27.835Z,2.30
2019-03-31T01:03:32.933Z,2.52
2019-03-31T01:08:36.480Z,2.75
2019-03-31T01:13:39.999Z,2.67
2019-03-31T01:18:43.939Z,2.47
2019-03-31T01:23:47.402Z,2.20
2019-03-31T01:28:51.195Z,2.80
2019-03-31T01:33:54.654Z,2.15
2019-03-31T01:38:58.112Z,2.63
2019-03-31T01:44:01.572Z,2.05
2019-03-31T01:49:05.870Z,2.65
2019-03-31T01:54:09.323Z,2.00
2019-03-31T01:59:12.787Z,2.35
2019-03-31T02:04:16.244Z,2.27
2019-03-31T02:09:20.077Z,2.70
2019-03-31T02:14:23.527Z,2.17
2019-03-31T02:19:27.011Z,2.37
2019-03-31T02:24:30.488Z,2.10
2019-03-31T02:29:33.943Z,1.87
2019-03-31T02:34:37.400Z,2.80
2019-03-31T02:39:40.856Z,2.67
2019-03-31T02:44:44.313Z,2.30
2019-03-31T02:49:47.774Z,2.67
2019-03-31T02:54:51.318Z,2.20
2019-03-31T02:59:55.624Z,2.10
2019-03-31T03:05:17.543Z,2.37
2019-03-31T03:10:07.628Z,2.57
2019-03-31T03:15:11.266Z,2.23
2019-03-31T03:20:14.738Z,1.90
2019-03-31T03:25:18.213Z,1.77
2019-03-31T03:30:21.779Z,2.07
2019-03-31T03:35:25.654Z,2.42
2019-03-31T03:40:29.098Z,1.77
2019-03-31T03:45:32.573Z,2.10
2019-03-31T03:50:36.040Z,2.50
2019-03-31T03:55:39.517Z,2.15
2019-03-31T04:00:42.992Z,1.92
2019-03-31T04:05:46.467Z,2.08
2019-03-31T04:10:52.969Z,2.70
2019-03-31T04:15:56.425Z,2.08
2019-03-31T04:20:59.886Z,2.37
2019-03-31T04:26:03.347Z,1.98
2019-03-31T04:31:06.804Z,2.53
2019-03-31T04:36:10.252Z,2.30
2019-03-31T04:41:13.708Z,2.90
2019-03-31T04:46:17.164Z,2.35
2019-03-31T04:51:20.626Z,2.02
2019-03-31T04:56:24.084Z,2.37
2019-03-31T05:01:27.567Z,2.65
2019-03-31T05:06:31.087Z,2.37
2019-03-31T05:11:34.565Z,2.05
2019-03-31T05:16:38.084Z,2.10
2019-03-31T05:21:41.549Z,1.95
2019-03-31T05:26:45.024Z,1.60
2019-03-31T05:31:48.495Z,1.70
2019-03-31T05:36:51.973Z,1.95
2019-03-31T05:41:55.448Z,2.37
2019-03-31T05:46:58.923Z,2.27
2019-03-31T05:52:02.401Z,1.50
2019-03-31T05:57:05.874Z,1.70
2019-03-31T06:02:09.344Z,2.92
2019-03-31T06:07:12.821Z,2.85
2019-03-31T06:12:16.292Z,2.20
2019-03-31T06:17:19.759Z,2.27
2019-03-31T06:22:23.234Z,2.00
2019-03-31T06:27:26.709Z,1.60
2019-03-31T06:32:30.187Z,1.63
2019-03-31T06:37:33.666Z,1.90
2019-03-31T06:42:37.136Z,1.60
2019-03-31T06:47:40.609Z,1.87
2019-03-31T06:52:44.085Z,1.95
2019-03-31T06:57:47.556Z,1.40
2019-03-31T07:02:51.027Z,2.02
2019-03-31T07:07:54.508Z,10.43
2019-03-31T07:12:59.716Z,10.28
2019-03-31T07:18:03.344Z,20.65
2019-03-31T07:23:06.833Z,24.27
2019-03-31T07:28:10.316Z,22.30
2019-03-31T07:33:13.798Z,23.55
2019-03-31T07:38:17.274Z,24.03
2019-03-31T07:43:20.738Z,18.03
2019-03-31T07:48:24.208Z,18.87
2019-03-31T07:53:27.674Z,19.23
2019-03-31T07:58:31.144Z,23.73
2019-03-31T08:03:34.617Z,18.83
2019-03-31T08:08:38.087Z,18.90
2019-03-31T08:13:41.551Z,17.70
2019-03-31T08:18:45.021Z,15.00
2019-03-31T08:23:48.486Z,15.90
2019-03-31T08:28:51.951Z,14.30
2019-03-31T08:33:55.416Z,18.75
2019-03-31T08:38:58.883Z,13.58
2019-03-31T08:44:02.342Z,11.22
2019-03-31T08:49:05.800Z,10.65
2019-03-31T08:54:09.260Z,10.23
2019-03-31T08:59:12.727Z,10.55
2019-03-31T09:04:16.188Z,14.10
2019-03-31T09:09:19.649Z,12.18
2019-03-31T09:14:23.113Z,11.40
2019-03-31T09:19:26.589Z,11.70
2019-03-31T09:24:30.054Z,12.53
2019-03-31T09:29:33.518Z,10.53
2019-03-31T09:34:36.982Z,11.12
2019-03-31T09:39:40.440Z,8.25
2019-03-31T09:44:43.907Z,11.10
2019-03-31T09:49:47.372Z,9.85
2019-03-31T09:54:50.828Z,9.13
2019-03-31T09:59:54.288Z,9.85
2019-03-31T10:04:57.749Z,10.00
2019-03-31T10:10:01.554Z,9.03
2019-03-31T10:15:07.495Z,9.44
2019-03-31T10:20:11.290Z,9.30
2019-03-31T10:25:14.745Z,10.87
2019-03-31T10:30:30.495Z,10.20
2019-03-31T10:35:34.120Z,9.70
2019-03-31T10:40:37.580Z,9.03
2019-03-31T10:45:41.040Z,13.67
2019-03-31T10:50:44.503Z,11.37
2019-03-31T10:55:47.992Z,9.93
2019-03-31T11:00:51.433Z,9.30
2019-03-31T11:05:54.897Z,11.25
2019-03-31T11:10:58.358Z,9.17
2019-03-31T11:16:01.826Z,10.58
2019-03-31T11:21:06.919Z,8.85
2019-03-31T11:26:10.381Z,10.72
2019-03-31T11:31:13.840Z,9.73
2019-03-31T11:36:17.297Z,7.27
2019-03-31T11:41:20.755Z,8.40
2019-03-31T11:46:24.216Z,10.35
2019-03-31T11:51:27.671Z,8.73
2019-03-31T11:56:31.133Z,9.80
2019-03-31T12:01:34.602Z,13.70
2019-03-31T12:06:38.080Z,10.32
2019-03-31T12:11:41.545Z,12.20
2019-03-31T12:16:45.005Z,10.30
2019-03-31T12:21:48.467Z,9.58
2019-03-31T12:26:51.928Z,10.75
2019-03-31T12:31:55.388Z,10.95
2019-03-31T12:36:58.854Z,14.15
2019-03-31T12:42:02.386Z,9.33
2019-03-31T12:47:05.851Z,11.45
2019-03-31T12:52:09.316Z,10.20
2019-03-31T12:57:12.785Z,10.28
2019-03-31T13:02:16.262Z,9.98
2019-03-31T13:07:19.744Z,10.32
2019-03-31T13:12:23.219Z,9.03
2019-03-31T13:17:26.701Z,8.37
2019-03-31T13:22:30.174Z,8.43
2019-03-31T13:27:33.822Z,7.37
2019-03-31T13:32:37.291Z,9.75
2019-03-31T13:37:40.763Z,8.68
2019-03-31T13:42:44.237Z,8.38
2019-03-31T13:47:48.638Z,9.87
2019-03-31T13:52:52.116Z,5.50
2019-03-31T13:57:58.064Z,6.55
2019-03-31T14:03:00.780Z,7.33
2019-03-31T14:08:04.796Z,6.67
2019-03-31T14:13:08.274Z,6.12
2019-03-31T14:18:11.748Z,8.30
2019-03-31T14:23:15.237Z,7.23
2019-03-31T14:28:18.708Z,8.20
2019-03-31T14:33:22.183Z,8.10
2019-03-31T14:38:39.144Z,7.15
2019-03-31T14:43:30.863Z,4.58
2019-03-31T14:48:34.330Z,4.30
2019-03-31T14:53:37.805Z,4.35
2019-03-31T14:58:41.280Z,4.53
2019-03-31T15:03:44.753Z,5.00
2019-03-31T15:08:54.241Z,4.65
2019-03-31T15:13:53.431Z,3.08
2019-03-31T15:18:56.900Z,4.57
2019-03-31T15:24:00.375Z,5.53
2019-03-31T15:29:04.116Z,4.50
2019-03-31T15:34:07.596Z,3.77
2019-03-31T15:39:11.084Z,4.55
2019-03-31T15:44:14.552Z,5.43
2019-03-31T15:49:18.024Z,4.53
2019-03-31T15:54:21.494Z,3.83
2019-03-31T15:59:24.968Z,3.00
2019-03-31T16:04:28.442Z,5.62
2019-03-31T16:09:31.922Z,3.47
2019-03-31T16:14:35.394Z,4.45
2019-03-31T16:19:38.929Z,5.12
2019-03-31T16:24:44.051Z,4.60
2019-03-31T16:29:47.527Z,4.62
2019-03-31T16:34:50.984Z,4.37
2019-03-31T16:39:54.439Z,3.37
2019-03-31T16:44:58.736Z,4.12
2019-03-31T16:50:02.243Z,2.85
2019-03-31T16:55:06.083Z,4.17
2019-03-31T17:00:09.877Z,3.25
2019-03-31T17:05:21.794Z,2.27
2019-03-31T17:10:18.853Z,2.93
2019-03-31T17:15:22.316Z,3.40
2019-03-31T17:20:25.772Z,2.72
2019-03-31T17:25:29.248Z,3.72
2019-03-31T17:30:32.699Z,2.85
2019-03-31T17:35:36.151Z,2.60
2019-03-31T17:40:39.608Z,3.67
2019-03-31T17:45:43.069Z,3.08
2019-03-31T17:50:46.541Z,2.52
2019-03-31T17:55:49.998Z,2.47
2019-03-31T18:00:53.457Z,2.60
2019-03-31T18:05:56.916Z,3.00
2019-03-31T18:11:00.376Z,2.22
2019-03-31T18:16:03.835Z,2.40
2019-03-31T18:21:07.292Z,2.25
2019-03-31T18:26:10.752Z,2.70
2019-03-31T18:31:14.212Z,2.10
2019-03-31T18:36:17.669Z,2.33
2019-03-31T18:41:21.128Z,2.08
2019-03-31T18:46:24.583Z,2.43
2019-03-31T18:51:28.044Z,2.17
2019-03-31T18:56:42.332Z,3.30
2019-03-31T19:01:56.751Z,2.40
2019-03-31T19:07:07.736Z,3.00
2019-03-31T19:12:12.830Z,2.25
2019-03-31T19:17:20.642Z,2.72
2019-03-31T19:22:28.504Z,2.02
2019-03-31T19:27:36.323Z,2.50
2019-03-31T19:32:41.442Z,3.08
2019-03-31T19:37:46.568Z,2.12
2019-03-31T19:43:03.914Z,1.92
2019-03-31T19:48:12.006Z,3.00
2019-03-31T19:53:17.122Z,2.27
2019-03-31T19:58:38.522Z,2.17
2019-03-31T20:03:43.622Z,2.12
2019-03-31T20:08:51.631Z,2.05
2019-03-31T20:14:05.619Z,2.35
2019-03-31T20:19:13.641Z,5.55
2019-03-31T20:24:21.136Z,2.30
2019-03-31T20:29:35.033Z,2.00
2019-03-31T20:34:48.875Z,1.92
2019-03-31T20:39:57.286Z,2.30
2019-03-31T20:45:00.823Z,2.03
2019-03-31T20:50:06.521Z,2.05
2019-03-31T20:55:16.040Z,2.20
2019-03-31T21:00:15.933Z,1.67
2019-03-31T21:05:19.389Z,1.60
2019-03-31T21:10:22.845Z,2.30
2019-03-31T21:15:26.299Z,1.70
2019-03-31T21:20:29.756Z,2.30
2019-03-31T21:25:33.216Z,1.72
2019-03-31T21:30:38.022Z,2.50
2019-03-31T21:35:41.479Z,1.62
2019-03-31T21:40:44.931Z,2.00
2019-03-31T21:45:48.390Z,1.65
2019-03-31T21:50:51.848Z,1.85
2019-03-31T21:55:55.656Z,2.40
2019-03-31T22:00:59.460Z,1.70
2019-03-31T22:06:02.917Z,2.90
2019-03-31T22:11:06.380Z,2.40
2019-03-31T22:16:09.836Z,2.33
2019-03-31T22:21:13.297Z,1.87
2019-03-31T22:26:19.436Z,1.65
2019-03-31T22:31:21.944Z,2.37
2019-03-31T22:36:25.414Z,1.52
2019-03-31T22:41:28.878Z,1.43
2019-03-31T22:46:32.342Z,1.55
2019-03-31T22:51:35.861Z,1.43
2019-03-31T22:56:39.251Z,1.20
2019-03-31T23:01:42.710Z,1.40
2019-03-31T23:06:46.170Z,1.57
2019-03-31T23:11:49.629Z,2.90
2019-03-31T23:16:53.092Z,1.60
2019-03-31T23:21:56.557Z,1.92
2019-03-31T23:27:00.016Z,2.00
2019-03-31T23:32:03.472Z,1.50
2019-03-31T23:37:06.930Z,1.32
2019-03-31T23:42:10.390Z,1.50
2019-03-31T23:47:13.854Z,1.15
2019-03-31T23:52:17.313Z,1.35
2019-03-31T23:57:22.424Z,1.43
